Latest Weather Observations for Paraburdoo

IDW60801

Issued at 4:02 pm WST Saturday 30 May 2015 (issued every 30 minutes, with the page automatically refreshed every 10 minutes)

About weather observations | Map of weather stations | Latest weather observations for WA | Other Formats
Station Details ID: 007185 Name: PARABURDOO AERO Lat: -23.17 Lon: 117.75 Height: 423.7 m
Data from the previous 72 hours. | See also: Recent months at Paraburdoo
Date/Time
WST
Temp
°C
App
Temp
°C
Dew
Point
Rel
Hum
%
Delta-T
°C
Wind Press
QNH
hPa
Press
MSL
hPa
Rain
since 9 am
mm
Dir
 
Spd
km/h
Gust
km/h
Spd
kts
Gust
kts
30/04:00pm 22.6 19.2 10.7 47 6.7 ESE 19 28 10 15 1019.2 1017.3 0.2
30/03:30pm 23.5 19.3 9.9 42 7.6 ESE 22 32 12 17 1019.0 1017.1 0.2
30/03:00pm 23.7 19.7 10.4 43 7.5 ESE 22 35 12 19 1019.0 1017.1 0.2
30/02:30pm 23.9 21.4 12.2 48 6.8 SE 17 26 9 14 1019.1 1017.2 0.2
30/02:00pm 23.3 20.7 12.0 49 6.5 SSE 17 26 9 14 1019.3 1017.4 0.2
30/01:30pm 23.9 21.4 12.2 48 6.8 ESE 17 26 9 14 1019.6 1017.8 0.2
30/01:00pm 23.4 20.6 12.7 51 6.2 E 19 24 10 13 1019.8 1018.0 0.2
30/12:30pm 22.6 20.4 13.4 56 5.4 SE 17 24 9 13 1020.4 1018.6 0.2
30/12:00pm 21.6 19.8 13.2 59 4.9 E 15 22 8 12 1021.1 1019.2 0.2
30/11:30am 21.5 19.6 14.2 63 4.3 E 17 20 9 11 1021.5 1019.7 0.0
30/11:00am 20.6 19.6 14.7 69 3.5 ESE 13 20 7 11 1021.8 1020.0 0.0
30/10:30am 19.7 18.6 14.3 71 3.2 ESE 13 20 7 11 1022.2 1020.4 0.0
30/10:00am 18.8 17.0 14.5 76 2.5 E 17 24 9 13 1022.4 1020.6 0.0
30/09:30am 18.7 16.8 15.2 80 2.1 E 19 24 10 13 1022.5 1020.7 0.0
30/09:00am 18.8 18.0 16.0 84 1.7 E 15 19 8 10 1022.4 1020.6 0.0
30/08:30am 17.4 15.8 16.1 92 0.8 E 19 24 10 13 1022.1 1020.3 0.0
30/08:00am 17.2 17.3 16.4 95 0.5 E 11 17 6 9 1021.7 1019.9 0.0
30/07:30am 16.3 16.6 16.0 98 0.2 ENE 9 11 5 6 1021.6 1019.8 0.0
30/07:00am 15.1 16.7 14.9 99 0.1 CALM 0 0 0 0 1021.5 1019.7 0.0
30/06:30am 14.5 15.1 14.3 99 0.1 NE 4 7 2 4 1021.2 1019.3 0.0
30/06:00am 15.7 15.0 15.5 99 0.1 ENE 13 20 7 11 1021.1 1019.2 0.0
30/05:30am 14.9 14.0 14.9 100 0.0 ENE 13 15 7 8 1020.9 1019.1 0.0
30/05:00am 14.7 14.9 14.7 100 0.0 NE 7 9 4 5 1020.7 1018.9 0.0
30/04:30am 15.3 14.5 15.1 99 0.1 NE 13 15 7 8 1020.6 1018.8 0.0
30/04:00am 15.4 14.6 15.2 99 0.1 NE 13 19 7 10 1020.6 1018.8 0.0
30/03:30am 16.3 17.2 16.1 99 0.1 ESE 6 13 3 7 1020.8 1019.0 0.0
30/03:00am 16.2 15.0 16.0 99 0.1 ESE 17 17 9 9 1020.8 1019.0 0.0
30/02:30am 15.8 15.2 15.6 99 0.1 ESE 13 15 7 8 1020.8 1019.0 0.0
30/02:00am 15.8 15.6 15.6 99 0.1 E 11 13 6 7 1020.9 1019.1 0.0
30/01:30am 15.1 15.4 14.9 99 0.1 E 7 11 4 6 1020.9 1019.1 0.0
30/01:00am 15.4 16.3 15.2 99 0.1 ESE 4 6 2 3 1020.8 1019.0 0.0
30/12:30am 15.6 17.0 15.4 99 0.1 NE 2 7 1 4 1020.7 1018.9 0.0
30/12:00am 15.6 16.0 15.4 99 0.1 NNE 7 9 4 5 1020.6 1018.8 0.0
 
Date/Time
WST
Temp
°C
App
Temp
°C
Dew
Point
Rel
Hum
%
Delta-T
°C
Wind Press
QNH
hPa
Press
MSL
hPa
Rain
since 9 am
mm
Dir
 
Spd
km/h
Gust
km/h
Spd
kts
Gust
kts
29/11:30pm 16.4 18.5 16.2 99 0.1 CALM 0 0 0 0 1020.7 1018.9 0.0
29/11:00pm 17.1 18.7 16.8 98 0.2 NNE 4 9 2 5 1020.7 1018.9 0.0
29/10:30pm 17.2 18.4 16.9 98 0.2 NNW 6 9 3 5 1020.7 1018.9 0.0
29/10:00pm 17.7 18.4 16.0 90 1.0 ESE 7 9 4 5 1020.6 1018.8 0.0
29/09:30pm 18.0 18.7 16.2 89 1.1 E 7 7 4 4 1020.6 1018.8 0.0
29/09:00pm 17.1 17.3 16.8 98 0.2 ENE 11 13 6 7 1020.6 1018.8 0.0
29/08:30pm 17.1 17.4 16.9 99 0.1 ENE 11 13 6 7 1020.7 1018.9 0.0
29/08:00pm 18.2 19.3 17.0 93 0.7 ESE 7 7 4 4 1020.5 1018.7 0.0
29/07:30pm 18.7 19.5 17.2 91 0.9 E 9 11 5 6 1020.2 1018.4 0.0
29/07:00pm 18.9 20.1 16.9 88 1.2 ESE 6 9 3 5 1019.9 1018.1 0.0
29/06:30pm 20.1 20.2 15.5 75 2.8 SSE 9 9 5 5 1019.3 1017.4 0.0
29/06:00pm 21.0 21.3 14.9 68 3.7 S 7 9 4 5 1018.9 1017.0 0.0
29/05:30pm 22.4 22.1 14.3 60 4.8 S 9 13 5 7 1018.3 1016.5 0.0
29/05:00pm 23.4 22.8 13.6 54 5.8 SE 9 15 5 8 1018.0 1016.2 0.0
29/04:30pm 23.1 22.8 14.4 58 5.2 SE 9 13 5 7 1017.8 1016.0 0.0
29/04:00pm 24.1 24.2 14.5 55 5.8 SE 7 15 4 8 1017.5 1015.7 0.0
29/03:30pm 23.3 22.8 14.8 59 5.1 SSE 11 13 6 7 1017.5 1015.7 0.0
29/03:00pm 25.0 24.7 14.5 52 6.4 ENE 9 15 5 8 1017.5 1015.7 0.0
29/02:30pm 24.5 24.6 15.4 57 5.6 NNE 9 15 5 8 1017.6 1015.8 0.0
29/02:00pm 22.7 23.1 15.3 63 4.5 SE 7 11 4 6 1017.6 1015.8 0.0
29/01:30pm 22.9 22.1 15.0 61 4.8 S 13 17 7 9 1017.7 1015.9 0.0
29/01:00pm 24.1 24.8 15.6 59 5.2 E 6 19 3 10 1017.9 1016.1 0.0
29/12:30pm 23.7 24.3 15.7 61 4.9 NNE 7 13 4 7 1018.3 1016.5 0.0
29/12:00pm 22.6 22.6 16.2 67 3.9 E 11 15 6 8 1018.8 1016.9 0.0
29/11:30am 22.3 23.0 17.0 72 3.3 E 9 13 5 7 1019.3 1017.4 0.0
29/11:00am 20.8 21.6 17.2 80 2.2 E 9 15 5 8 1019.6 1017.8 0.0
29/10:30am 20.8 21.7 17.6 82 2.0 ENE 9 15 5 8 1019.9 1018.1 0.0
29/10:00am 20.1 20.7 17.7 86 1.5 ENE 11 15 6 8 1020.2 1018.4 0.0
29/09:30am 19.5 20.8 18.5 94 0.6 E 9 13 5 7 1020.4 1018.6 0.0
29/09:00am 19.5 21.1 19.2 98 0.2 ENE 9 11 5 6 1020.2 1018.4 0.0
29/08:30am 18.7 20.4 18.4 98 0.2 ENE 7 9 4 5 1019.9 1018.1 0.0
29/08:00am 17.1 18.2 17.1 100 0.0 NE 7 9 4 5 1019.7 1017.9 0.0
29/07:30am 15.4 15.8 15.4 100 0.0 NE 7 9 4 5 1019.4 1017.6 0.0
29/07:00am 13.9 13.8 13.9 100 0.0 NE 7 9 4 5 1019.0 1017.1 0.0
29/06:30am 13.6 13.4 13.6 100 0.0 ENE 7 9 4 5 1018.7 1016.8 0.0
29/06:00am 14.0 13.6 14.0 100 0.0 ENE 9 9 5 5 1018.6 1016.7 0.0
29/05:30am 13.9 14.4 13.9 100 0.0 SE 4 9 2 5 1018.2 1016.4 0.0
29/05:00am 14.1 13.7 14.1 100 0.0 E 9 9 5 5 1017.9 1016.1 0.0
29/04:30am 14.1 13.7 14.1 100 0.0 ENE 9 11 5 6 1017.7 1015.9 0.0
29/04:00am 14.6 14.8 14.6 100 0.0 ESE 7 9 4 5 1017.7 1015.9 0.0
29/03:30am 14.9 15.4 14.9 100 0.0 SE 6 7 3 4 1017.7 1015.9 0.0
29/03:00am 15.5 16.0 15.5 100 0.0 ENE 7 9 4 5 1017.6 1015.8 0.0
29/02:30am 15.8 16.4 15.8 100 0.0 ENE 7 9 4 5 1017.7 1015.9 0.0
29/02:00am 15.9 16.7 15.9 100 0.0 NE 6 9 3 5 1017.9 1016.1 0.0
29/01:30am 16.0 16.7 16.0 100 0.0 NNE 7 7 4 4 1017.9 1016.1 0.0
29/01:00am 16.0 15.9 16.0 100 0.0 ENE 11 13 6 7 1018.0 1016.2 0.0
29/12:30am 15.9 15.8 15.9 100 0.0 NE 11 11 6 6 1018.0 1016.2 0.0
29/12:00am 15.9 16.2 15.9 100 0.0 NE 9 11 5 6 1018.1 1016.3 0.0
 
Date/Time
WST
Temp
°C
App
Temp
°C
Dew
Point
Rel
Hum
%
Delta-T
°C
Wind Press
QNH
hPa
Press
MSL
hPa
Rain
since 9 am
mm
Dir
 
Spd
km/h
Gust
km/h
Spd
kts
Gust
kts
28/11:30pm 16.2 16.6 16.2 100 0.0 NE 9 9 5 5 1018.2 1016.4 0.0
28/11:00pm 16.5 18.7 16.5 100 0.0 CALM 0 0 0 0 1018.3 1016.5 0.0
28/10:30pm 16.7 17.6 16.7 100 0.0 ENE 7 9 4 5 1018.6 1016.7 0.0
28/10:00pm 16.7 17.8 16.7 100 0.0 ESE 6 7 3 4 1018.6 1016.7 0.0
28/09:30pm 17.0 18.2 16.8 99 0.1 NE 6 9 3 5 1018.3 1016.5 0.0
28/09:00pm 17.4 18.5 17.2 99 0.1 ENE 7 9 4 5 1018.2 1016.4 0.0
28/08:30pm 17.7 18.2 17.5 99 0.1 ENE 11 13 6 7 1018.3 1016.5 0.0
28/08:00pm 17.7 20.3 17.5 99 0.1 CALM 0 0 0 0 1018.1 1016.3 0.0
28/07:30pm 18.0 19.6 17.8 99 0.1 ENE 6 7 3 4 1017.8 1016.0 0.0
28/07:00pm 18.3 19.4 18.0 98 0.2 NE 9 9 5 5 1017.4 1015.6 0.0
28/06:30pm 18.4 19.6 18.2 99 0.1 NE 9 9 5 5 1017.1 1015.2 0.0
28/06:00pm 18.8 20.1 18.5 98 0.2 NNE 9 9 5 5 1017.0 1015.1 0.0
28/05:30pm 19.5 22.4 18.3 93 0.8 CALM 0 0 0 0 1016.9 1015.0 0.0
28/05:00pm 20.0 22.3 17.6 86 1.5 SE 2 7 1 4 1016.9 1015.0 0.0
28/04:30pm 20.6 21.4 16.4 77 2.6 SSE 7 9 4 5 1016.8 1014.9 0.0
28/04:00pm 20.8 21.5 16.2 75 2.8 SE 7 9 4 5 1016.8 1014.9 0.0
28/03:30pm 20.7 21.3 16.7 78 2.5 S 9 13 5 7 1016.8 1014.9 0.0
28/03:00pm 20.9 21.4 16.5 76 2.7 SSE 9 13 5 7 1016.6 1014.7 0.0
28/02:30pm 20.8 20.8 17.2 80 2.2 SSE 13 17 7 9 1016.5 1014.6 0.0
28/02:00pm 20.9 21.6 17.1 79 2.4 S 9 13 5 7 1016.7 1014.8 0.0
28/01:30pm 20.8 21.4 17.8 83 1.9 S 11 15 6 8 1016.9 1015.0 0.0
28/01:00pm 20.3 20.6 17.1 82 2.0 S 11 15 6 8 1017.1 1015.2 0.0
28/12:30pm 20.4 21.2 17.4 83 1.9 S 9 13 5 7 1017.4 1015.6 0.0
28/12:00pm 20.5 21.1 16.7 79 2.3 SSW 9 15 5 8 1017.7 1015.9 0.0
28/11:30am 20.3 21.4 17.1 82 2.0 SW 7 11 4 6 1018.0 1016.2 0.0
28/11:00am 20.1 21.3 17.3 84 1.7 WSW 7 11 4 6 1018.1 1016.3 0.0
28/10:30am 19.5 21.1 18.3 93 0.8 W 7 9 4 5 1018.4 1016.6 0.0
28/10:00am 18.8 20.5 18.1 96 0.4 NNW 6 9 3 5 1018.7 1016.8 0.0
28/09:30am 18.6 21.5 18.1 97 0.3 CALM 0 6 0 3 1018.7 1016.8 0.0
28/09:00am 18.2 20.2 17.9 98 0.2 NE 4 7 2 4 1018.3 1016.5 2.2
28/08:30am 17.5 20.0 17.3 99 0.1 CALM 0 0 0 0 1018.1 1016.3 2.2
28/08:00am 17.0 18.1 17.0 100 0.0 NE 7 11 4 6 1017.8 1016.0 2.2
28/07:30am 15.4 17.2 15.4 100 0.0 CALM 0 4 0 2 1017.6 1015.8 2.2
28/07:00am 15.3 15.7 15.3 100 0.0 ENE 7 9 4 5 1017.3 1015.5 2.2
28/06:30am 15.2 14.4 15.2 100 0.0 NE 13 13 7 7 1017.0 1015.1 2.2
28/06:00am 15.1 15.4 15.1 100 0.0 ENE 7 11 4 6 1016.9 1015.0 2.2
28/05:30am 14.9 15.2 14.9 100 0.0 ENE 7 7 4 4 1016.6 1014.7 2.0
28/05:00am 15.6 17.4 15.6 100 0.0 CALM 0 0 0 0 1016.3 1014.4 2.0
28/04:30am 15.5 17.3 15.5 100 0.0 CALM 0 0 0 0 1016.3 1014.4 2.0
28/04:00am 16.3 17.3 16.3 100 0.0 SSW 6 9 3 5 1016.2 1014.3 2.0
28/03:30am 16.8 17.0 16.8 100 0.0 ENE 11 15 6 8 1016.3 1014.4 2.0
28/03:00am 16.9 18.1 16.9 100 0.0 NE 6 9 3 5 1016.3 1014.4 2.0
28/02:30am 17.1 18.2 17.1 100 0.0 ENE 7 11 4 6 1016.5 1014.6 2.0
28/02:00am 17.3 18.7 17.3 100 0.0 N 6 9 3 5 1016.8 1014.9 2.0
28/01:30am 17.1 17.4 17.1 100 0.0 NNE 11 13 6 7 1016.9 1015.0 2.0
28/01:00am 16.6 17.1 16.6 100 0.0 NE 9 13 5 7 1017.1 1015.2 2.0
28/12:30am 16.8 17.4 16.8 100 0.0 NE 9 13 5 7 1017.2 1015.3 2.0
28/12:20am 16.8 17.4 16.8 100 0.0 NNE 9 13 5 7 1017.2 1015.3 2.0
28/12:00am 16.8 17.4 16.8 100 0.0 ENE 9 13 5 7 1017.1 1015.2 2.0
 
Date/Time
WST
Temp
°C
App
Temp
°C
Dew
Point
Rel
Hum
%
Delta-T
°C
Wind Press
QNH
hPa
Press
MSL
hPa
Rain
since 9 am
mm
Dir
 
Spd
km/h
Gust
km/h
Spd
kts
Gust
kts
27/11:30pm 16.6 16.4 16.6 100 0.0 ENE 13 15 7 8 1017.0 1015.1 2.0
27/11:00pm 16.2 16.2 16.2 100 0.0 E 11 13 6 7 1017.2 1015.3 2.0
27/10:30pm 16.2 17.1 16.2 100 0.0 NNE 6 7 3 4 1017.5 1015.7 2.0
27/10:00pm 16.9 17.9 16.9 100 0.0 E 7 11 4 6 1017.1 1015.2 2.0
27/09:30pm 17.0 16.9 17.0 100 0.0 ENE 13 17 7 9 1016.7 1014.8 2.0
27/09:00pm 17.2 16.8 17.2 100 0.0 NE 15 20 8 11 1017.0 1015.1 2.0
27/08:30pm 17.1 16.7 17.1 100 0.0 ENE 15 19 8 10 1016.5 1014.6 2.0
27/08:00pm 17.1 17.4 17.1 100 0.0 ENE 11 13 6 7 1017.0 1015.1 2.0
27/07:30pm 16.9 17.9 16.9 100 0.0 ENE 7 11 4 6 1016.8 1014.9 2.0
27/07:00pm 17.0 18.1 17.0 100 0.0 ENE 7 11 4 6 1017.1 1015.2 2.0
27/06:30pm 17.0 17.7 17.0 100 0.0 ENE 9 15 5 8 1016.8 1014.9 2.0
27/06:00pm 17.0 17.7 17.0 100 0.0 E 9 15 5 8 1016.7 1014.8 2.0
27/05:30pm 16.9 16.8 16.9 100 0.0 ENE 13 17 7 9 1016.5 1014.6 1.8
27/05:00pm 16.9 16.8 16.9 100 0.0 ENE 13 19 7 10 1016.3 1014.4 1.8
27/04:30pm 16.9 17.2 16.9 100 0.0 ENE 11 13 6 7 1016.8 1014.9 1.6

Other Formats:

Comma delimited format used in spreadsheet applications
http://www.bom.gov.au/fwo/IDW60801/IDW60801.94316.axf

JavaScript Object Notation format (JSON) in row-major order
http://www.bom.gov.au/fwo/IDW60801/IDW60801.94316.json